Racecast

Raven Beverly

Sacramento Speed Factory (CA) · - · STS · Compare head to head

Athlete rating 114.3 2014 TF season
Best race 114.3 TF
Races 32
Seasons 2 2013 — 2014

RankedNation #5737·CA #362·Team #3 ?

Rating scale ?
Speed rating — all races

Track & Field

TF speed rating

2014 TF 114.3

Sacramento Speed Factory (CA) · Grade -

Date Meet Event Result Place Rating Difficulty PR/SR Flags
2014-05-24 Central Valley Roadrunners 200m 28.92 28th · 7th on team -0.026
2014-05-24 Central Valley Roadrunners 100m 14.1 25th · 9th on team -0.026
2014-04-26 Revolution Express TC 100m 14.34 24th · 5th on team -0.024
2014-04-26 Revolution Express TC 200m 29.36 18th · 3rd on team -0.024
2014-04-05 Sacramento Speed Showcase 200m 28.88 20th · 4th on team -0.033 ★PR SR
2014-04-05 Sacramento Speed Showcase 100m 13.87 29th · 5th on team -0.033 ★PR SR
2014-04-05 Sacramento Speed Showcase 400m 1:09.27 28th · 4th on team -0.033 SR
2014-03-22 RPM 400m 1:09.94 19th · 3rd on team -0.012 SR
2014-03-22 RPM 800m 2:58.5 15th · 1st on team 114.3 -0.012 ★PR ★R SR RSR
2014-03-22 RPM 100m 14.54 34th · 4th on team -0.012 SR

2013 TF 107.8

Sacramento Speed Factory (CA) · Grade -

Date Meet Event Result Place Rating Difficulty PR/SR Flags
2013-06-08 Pacific Association Youth Championship (PAC) - 2-day meet 100m 14.31 31st · 4th on team -0.024
2013-06-08 Pacific Association Youth Championship (PAC) - 2-day meet 200m 29 27th · 4th on team -0.024 PR SR
2013-06-08 Pacific Association Youth Championship (PAC) - 2-day meet 400m 1:05.45 10th · 1st on team -0.024 ★PR SR
2013-05-25 Central Valley Roadrunners (2-day meet) 100m 14.27 18th · 2nd on team -0.026 PR SR
2013-05-25 Central Valley Roadrunners (2-day meet) 400m 1:07.49 5th · 2nd on team -0.026 PR SR
2013-05-25 Central Valley Roadrunners (2-day meet) 200m 29.91 19th · 1st on team -0.026
2013-05-11 Classic Track Club Relays 200m 29.94 16th · 2nd on team -0.010
2013-05-04 Hercules / Running Rebels (2-day) 400m 1:07.9 23rd · 1st on team -0.038 PR SR
2013-05-04 Hercules / Running Rebels (2-day) 200m 29.98 53rd · 1st on team -0.038
2013-04-27 Revolution Express Track Club 400m 1:07.96 20th · 1st on team -0.024 PR SR
2013-04-27 Revolution Express Track Club 200m 29.54 29th · 2nd on team -0.024 PR SR
2013-04-27 Revolution Express Track Club 100m 14.4 28th · 3rd on team -0.024
2013-04-20 Shor / Sheppard Classic 200m 30.3 38th · 2nd on team -0.023 PR SR
2013-04-20 Shor / Sheppard Classic 100m 14.33 29th · 2nd on team -0.023 PR SR
2013-04-06 Sacramento Speed Showcase 400m 1:08.39 12th · 1st on team -0.031 PR SR
2013-04-06 Sacramento Speed Showcase 200m 30.85 20th · 1st on team -0.031 PR SR
2013-03-30 Stockton Saints 800m 3:14.54 6th · 1st on team 104.3 -0.016
2013-03-30 Stockton Saints 400m 1:11.36 23rd · 1st on team -0.016 PR SR
2013-03-09 RETC home practice meet 100m 15.24 6th · 3rd on team -0.024 PR SR
2013-03-09 RETC home practice meet 800m 3:00.3 2nd · 1st on team 111.4 -0.024 PR R SR RSR
2013-03-09 RETC home practice meet 200m 33.54 5th · 3rd on team -0.024 PR SR
2013-03-09 RETC home practice meet 400m 1:16.14 4th · 2nd on team -0.024 PR SR